Time;durP1;ratioP1;P1;durP2;ratioP2;P2;SDS_P1;SDS_P2;PMS_P1;PMS_P2;Temp;Humidity;BMP_temperature;BMP_pressure;BME280_temperature;BME280_humidity;BME280_pressure;Samples;Min_cycle;Max_cycle;Signal;HPM_P1;HPM_P2
2022/06/14 00:01:09;;;;;;;4.18;2.00;;;14.00;99.90;;;;;;2093516;28;20029;-70
2022/06/14 00:02:09;;;;;;;4.63;1.95;;;14.00;99.90;;;;;;2096206;28;20020;-70
2022/06/14 00:03:10;;;;;;;6.75;2.35;;;14.00;99.90;;;;;;2097027;28;20024;-70
2022/06/14 00:04:11;;;;;;;4.13;2.10;;;14.00;99.90;;;;;;2096638;28;20021;-70
2022/06/14 00:05:12;;;;;;;5.10;2.10;;;14.00;99.90;;;;;;2096422;28;20030;-70
2022/06/14 00:06:22;;;;;;;7.15;2.20;;;14.00;99.90;;;;;;2097517;28;20027;-70
2022/06/14 00:07:22;;;;;;;4.32;2.05;;;14.00;99.90;;;;;;2095275;28;20097;-70
2022/06/14 00:08:27;;;;;;;5.25;2.17;;;14.00;99.90;;;;;;2096363;28;20036;-70
2022/06/14 00:09:27;;;;;;;4.10;2.03;;;14.00;99.90;;;;;;2099182;28;20050;-70
2022/06/14 00:10:28;;;;;;;7.68;1.80;;;14.00;99.90;;;;;;2109699;28;20057;-70
2022/06/14 00:11:32;;;;;;;8.13;2.40;;;13.90;99.90;;;;;;2110579;28;20055;-70
2022/06/14 00:12:32;;;;;;;5.32;2.53;;;13.90;99.90;;;;;;2093592;28;20489;-70
2022/06/14 00:13:33;;;;;;;5.47;2.50;;;13.90;99.90;;;;;;2095631;28;20032;-70
2022/06/14 00:14:34;;;;;;;4.15;1.90;;;13.90;99.90;;;;;;2097093;28;20025;-70
2022/06/14 00:15:35;;;;;;;4.90;1.98;;;13.90;99.90;;;;;;2094160;28;20448;-70
2022/06/14 00:16:37;;;;;;;4.10;2.35;;;13.90;99.90;;;;;;2097627;28;20060;-70
2022/06/14 00:17:38;;;;;;;5.65;2.33;;;13.90;99.90;;;;;;2097588;28;20023;-70
2022/06/14 00:18:39;;;;;;;6.93;2.05;;;13.90;99.90;;;;;;2097206;28;20027;-70
2022/06/14 00:19:39;;;;;;;5.18;1.95;;;13.90;99.90;;;;;;2096961;28;20480;-70
2022/06/14 00:20:41;;;;;;;7.18;2.17;;;13.80;99.90;;;;;;2095488;28;20025;-70
2022/06/14 00:21:42;;;;;;;3.97;1.92;;;13.80;99.90;;;;;;2096702;28;20031;-70
2022/06/14 00:22:42;;;;;;;5.00;2.03;;;13.80;99.90;;;;;;2097395;28;20031;-70
2022/06/14 00:23:43;;;;;;;8.40;2.67;;;13.80;99.90;;;;;;2095908;28;20024;-70
2022/06/14 00:24:44;;;;;;;5.30;2.05;;;13.80;99.90;;;;;;2097287;28;20109;-70
2022/06/14 00:25:47;;;;;;;5.03;2.20;;;13.80;99.90;;;;;;2096144;28;20085;-70
2022/06/14 00:26:48;;;;;;;4.75;2.38;;;13.80;99.90;;;;;;2097321;28;20019;-70
2022/06/14 00:27:49;;;;;;;5.03;2.03;;;13.80;99.90;;;;;;2096020;28;20020;-70
2022/06/14 00:28:49;;;;;;;4.72;2.08;;;13.80;99.90;;;;;;2094906;28;20531;-70
2022/06/14 00:29:50;;;;;;;7.60;2.20;;;13.70;99.90;;;;;;2096472;28;20471;-70
2022/06/14 00:30:54;;;;;;;7.78;2.00;;;13.70;99.90;;;;;;2096421;28;20024;-70
2022/06/14 00:31:54;;;;;;;6.53;2.08;;;13.70;99.90;;;;;;2095440;28;20032;-70
2022/06/14 00:32:55;;;;;;;5.93;2.17;;;13.70;99.90;;;;;;2097708;28;20020;-70
2022/06/14 00:33:56;;;;;;;7.15;2.28;;;13.70;99.90;;;;;;2097807;28;20020;-70
2022/06/14 00:34:57;;;;;;;4.85;2.28;;;13.70;99.90;;;;;;2098104;28;20078;-70
2022/06/14 00:35:59;;;;;;;4.28;2.00;;;13.70;99.90;;;;;;2094851;28;20124;-70
2022/06/14 00:36:59;;;;;;;6.10;2.58;;;13.70;99.90;;;;;;2096185;28;20032;-70
2022/06/14 00:38:00;;;;;;;5.45;1.95;;;13.70;99.90;;;;;;2095301;28;20017;-69
2022/06/14 00:39:05;;;;;;;6.90;2.75;;;13.70;99.90;;;;;;2095603;28;20016;-70
2022/06/14 00:40:08;;;;;;;4.32;2.03;;;13.70;99.90;;;;;;2095994;28;20597;-70
2022/06/14 00:41:20;;;;;;;4.72;2.13;;;13.60;99.90;;;;;;2093054;28;20480;-70
2022/06/14 00:42:23;;;;;;;4.90;2.20;;;13.60;99.90;;;;;;2098202;28;20032;-70
2022/06/14 00:43:25;;;;;;;5.15;2.50;;;13.60;99.90;;;;;;2095309;28;20013;-70
2022/06/14 00:44:29;;;;;;;4.82;2.33;;;13.60;99.90;;;;;;2095112;28;20025;-70
2022/06/14 00:45:29;;;;;;;5.63;2.28;;;13.60;99.90;;;;;;2095557;28;20428;-70
2022/06/14 00:46:38;;;;;;;4.82;2.13;;;13.60;99.90;;;;;;2095719;28;20042;-70
2022/06/14 00:47:46;;;;;;;8.30;2.53;;;13.60;99.90;;;;;;2095222;28;20107;-70
2022/06/14 00:48:53;;;;;;;4.20;2.17;;;13.60;99.90;;;;;;2096822;28;20029;-70
2022/06/14 00:49:58;;;;;;;5.35;2.03;;;13.50;99.90;;;;;;2094635;28;20036;-69
2022/06/14 00:51:12;;;;;;;6.88;2.30;;;13.50;99.90;;;;;;2096101;28;20378;-69
2022/06/14 00:52:25;;;;;;;10.30;2.53;;;13.50;99.90;;;;;;2093638;28;20020;-69
2022/06/14 00:53:40;;;;;;;5.57;2.20;;;13.50;99.90;;;;;;2093980;28;20483;-70
2022/06/14 00:54:44;;;;;;;5.38;2.30;;;13.50;99.90;;;;;;2095336;28;20025;-70
2022/06/14 00:55:57;;;;;;;2.90;1.67;;;13.40;99.90;;;;;;2096740;28;20466;-70
2022/06/14 00:57:06;;;;;;;5.30;2.13;;;13.40;99.90;;;;;;2096004;28;20098;-70
2022/06/14 00:58:21;;;;;;;7.20;2.45;;;13.40;99.90;;;;;;2096609;28;20016;-69
2022/06/14 00:59:36;;;;;;;5.55;2.20;;;13.40;99.90;;;;;;2094025;28;20017;-69
2022/06/14 01:00:45;;;;;;;5.72;2.55;;;13.40;99.90;;;;;;2095159;28;20078;-69
2022/06/14 01:01:49;;;;;;;6.85;2.25;;;13.40;99.90;;;;;;2096041;28;20033;-70
2022/06/14 01:02:56;;;;;;;4.82;2.50;;;13.40;99.90;;;;;;2095907;28;20437;-70
2022/06/14 01:04:00;;;;;;;6.45;2.28;;;13.40;99.90;;;;;;2094693;28;20050;-70
2022/06/14 01:05:05;;;;;;;4.97;2.03;;;13.40;99.90;;;;;;2095390;28;20029;-69
2022/06/14 01:06:24;;;;;;;7.03;2.47;;;13.40;99.90;;;;;;2098480;28;20025;-69
2022/06/14 01:07:31;;;;;;;6.95;3.03;;;13.30;99.90;;;;;;2095737;28;20028;-69
2022/06/14 01:08:39;;;;;;;6.38;2.45;;;13.30;99.90;;;;;;2095484;28;20032;-70
2022/06/14 01:09:51;;;;;;;6.00;2.55;;;13.30;99.90;;;;;;2095346;28;20032;-70
2022/06/14 01:10:51;;;;;;;6.57;2.40;;;13.30;99.90;;;;;;2097948;28;20017;-70
2022/06/14 01:12:09;;;;;;;7.00;2.30;;;13.30;99.90;;;;;;2096202;28;20063;-70
2022/06/14 01:13:10;;;;;;;4.95;2.47;;;13.30;99.90;;;;;;2093795;28;20024;-69
2022/06/14 01:14:14;;;;;;;6.65;2.47;;;13.20;99.90;;;;;;2095309;28;20017;-69
2022/06/14 01:15:19;;;;;;;6.82;2.40;;;13.20;99.90;;;;;;2093954;28;20107;-69
2022/06/14 01:16:21;;;;;;;5.05;2.30;;;13.20;99.90;;;;;;2094463;28;20107;-70
2022/06/14 01:17:22;;;;;;;6.13;2.47;;;13.20;99.90;;;;;;2094234;28;20035;-70
2022/06/14 01:18:25;;;;;;;7.03;2.70;;;13.20;99.90;;;;;;2094123;28;20128;-70
2022/06/14 01:19:26;;;;;;;5.38;2.20;;;13.20;99.90;;;;;;2095772;28;20029;-70
2022/06/14 01:20:27;;;;;;;6.22;2.72;;;13.20;99.90;;;;;;2094577;28;20488;-69
2022/06/14 01:21:28;;;;;;;7.78;2.42;;;13.20;99.90;;;;;;2097974;28;20472;-69
2022/06/14 01:22:30;;;;;;;4.43;2.53;;;13.10;99.90;;;;;;2096429;28;20020;-69
2022/06/14 01:23:32;;;;;;;6.00;2.30;;;13.10;99.90;;;;;;2096135;28;20094;-69
2022/06/14 01:24:34;;;;;;;5.53;2.35;;;13.10;99.90;;;;;;2095932;28;20028;-70
2022/06/14 01:25:39;;;;;;;5.40;2.63;;;13.10;99.90;;;;;;2095861;28;20264;-70
2022/06/14 01:26:40;;;;;;;9.20;3.35;;;13.10;99.90;;;;;;2094426;28;20052;-70
2022/06/14 01:27:41;;;;;;;6.80;2.72;;;13.10;99.90;;;;;;2096573;28;20472;-70
2022/06/14 01:28:48;;;;;;;6.15;3.03;;;13.10;99.90;;;;;;2096857;28;20023;-70
2022/06/14 01:29:58;;;;;;;7.30;3.00;;;13.10;99.90;;;;;;2097659;28;20383;-70
2022/06/14 01:30:58;;;;;;;;;;;13.10;99.90;;;;;;2096190;28;20103;-70
2022/06/14 01:32:04;;;;;;;7.75;2.88;;;13.00;99.90;;;;;;2095426;28;19915;-70
2022/06/14 01:33:11;;;;;;;6.20;2.85;;;13.00;99.90;;;;;;2100587;28;20017;-70
2022/06/14 01:34:12;;;;;;;6.50;2.60;;;13.00;99.90;;;;;;2098384;28;20024;-70
2022/06/14 01:35:18;;;;;;;5.50;2.97;;;13.00;99.90;;;;;;2095207;28;20104;-70
2022/06/14 01:36:30;;;;;;;8.25;3.25;;;13.00;99.90;;;;;;2094327;28;20036;-70
2022/06/14 01:37:32;;;;;;;6.28;2.83;;;13.00;99.90;;;;;;2098287;28;20025;-70
2022/06/14 01:38:32;;;;;;;5.93;2.70;;;13.00;99.90;;;;;;2095153;28;20031;-69
2022/06/14 01:39:33;;;;;;;4.97;2.53;;;12.90;99.90;;;;;;2097655;28;20545;-70
2022/06/14 01:41:05;;;;;;;5.22;2.90;;;12.90;99.90;;;;;;2095148;28;20021;-70
2022/06/14 01:42:15;;;;;;;8.02;3.10;;;12.90;99.90;;;;;;2091325;28;20556;-70
2022/06/14 01:43:34;;;;;;;7.22;3.13;;;12.90;99.90;;;;;;2096192;28;20028;-70
2022/06/14 01:44:45;;;;;;;7.78;3.50;;;12.90;99.90;;;;;;2097670;28;20024;-69
2022/06/14 01:46:01;;;;;;;5.40;3.33;;;12.90;99.90;;;;;;2095311;28;20357;-69
2022/06/14 01:47:20;;;;;;;7.68;3.10;;;12.80;99.90;;;;;;2096715;28;20378;-69
2022/06/14 01:48:20;;;;;;;8.20;3.00;;;12.80;99.90;;;;;;2096733;28;20027;-69
2022/06/14 01:51:51;;;;;;;5.63;3.08;;;12.80;99.90;;;;;;2097888;28;20060;-69
2022/06/14 01:53:13;;;;;;;6.13;3.20;;;12.70;99.90;;;;;;2097051;28;20028;-69
2022/06/14 01:54:44;;;;;;;6.40;3.00;;;12.70;99.90;;;;;;2100191;28;20024;-70
2022/06/14 01:56:27;;;;;;;6.38;3.00;;;12.70;99.90;;;;;;2089932;28;20045;-70
2022/06/14 01:57:32;;;;;;;5.82;2.50;;;12.70;99.90;;;;;;2080196;28;20687;-69
2022/06/14 01:58:59;;;;;;;6.90;2.78;;;12.60;99.90;;;;;;2079614;28;20087;-69
2022/06/14 02:00:10;;;;;;;4.38;2.60;;;12.60;99.90;;;;;;2078624;28;20493;-69
2022/06/14 02:01:37;;;;;;;6.05;2.58;;;12.60;99.90;;;;;;2078254;28;20116;-69
2022/06/14 02:02:47;;;;;;;6.20;2.58;;;12.60;99.90;;;;;;2078941;28;20137;-70
2022/06/14 02:05:35;;;;;;;5.20;3.13;;;12.50;99.90;;;;;;2097609;28;20040;-69
2022/06/14 02:07:11;;;;;;;6.70;3.05;;;12.50;99.90;;;;;;2098040;28;20024;-69
2022/06/14 02:08:18;;;;;;;6.35;2.78;;;12.50;99.90;;;;;;2094064;28;20028;-69
2022/06/14 02:09:35;;;;;;;4.88;2.55;;;12.50;99.90;;;;;;2097308;28;20025;-69
2022/06/14 02:10:47;;;;;;;6.10;3.17;;;12.50;99.90;;;;;;2099983;28;20032;-69
2022/06/14 02:11:48;;;;;;;5.47;3.10;;;12.50;99.90;;;;;;2096795;28;20024;-70
2022/06/14 02:12:54;;;;;;;6.40;3.25;;;12.50;99.90;;;;;;2101386;28;20081;-70
2022/06/14 02:14:07;;;;;;;8.10;3.10;;;12.50;99.90;;;;;;2093426;28;20028;-69
2022/06/14 02:15:23;;;;;;;7.55;3.15;;;12.50;99.90;;;;;;2096928;28;20025;-69
2022/06/14 02:16:30;;;;;;;6.90;2.65;;;12.50;99.90;;;;;;2095146;28;20028;-69
2022/06/14 02:17:40;;;;;;;6.45;2.58;;;12.40;99.90;;;;;;2098301;28;20028;-70
2022/06/14 02:18:45;;;;;;;5.90;3.22;;;12.50;99.90;;;;;;2097097;28;20074;-69
2022/06/14 02:19:52;;;;;;;5.20;2.90;;;12.40;99.90;;;;;;2099221;28;20390;-69
2022/06/14 02:20:56;;;;;;;6.78;3.10;;;12.40;99.90;;;;;;2096958;28;20027;-69
2022/06/14 02:22:11;;;;;;;8.32;2.90;;;12.50;99.90;;;;;;2097777;28;21505;-69
2022/06/14 02:23:13;;;;;;;6.97;2.80;;;12.40;99.90;;;;;;2095782;28;20063;-69
2022/06/14 02:24:27;;;;;;;6.32;3.00;;;12.40;99.90;;;;;;2097457;28;20033;-69
2022/06/14 02:25:37;;;;;;;6.38;2.80;;;12.40;99.90;;;;;;2097873;28;20506;-69
2022/06/14 02:26:42;;;;;;;10.48;3.15;;;12.40;99.90;;;;;;2098201;28;20047;-69
2022/06/14 02:28:07;;;;;;;6.70;3.05;;;12.40;99.90;;;;;;2096536;28;20020;-69
2022/06/14 02:29:14;;;;;;;5.00;2.50;;;12.40;99.90;;;;;;2095328;28;20074;-69
2022/06/14 02:30:22;;;;;;;7.30;3.00;;;12.40;99.90;;;;;;2098419;28;20073;-69
2022/06/14 02:31:39;;;;;;;6.03;2.55;;;12.40;99.90;;;;;;2095885;28;20085;-69
2022/06/14 02:33:01;;;;;;;5.82;2.67;;;12.40;99.90;;;;;;2098061;28;20099;-69
2022/06/14 02:34:14;;;;;;;4.57;2.58;;;12.40;99.90;;;;;;2095931;28;20488;-69
2022/06/14 02:35:29;;;;;;;8.65;3.35;;;12.30;99.90;;;;;;2096085;28;20028;-69
2022/06/14 02:36:35;;;;;;;5.07;2.80;;;12.30;99.90;;;;;;2098451;28;20495;-69
2022/06/14 02:38:02;;;;;;;6.43;2.67;;;12.30;99.90;;;;;;2096712;28;20033;-69
2022/06/14 02:39:08;;;;;;;6.88;2.67;;;12.30;99.90;;;;;;2075904;28;20026;-69
2022/06/14 02:40:28;;;;;;;7.57;2.50;;;12.30;99.90;;;;;;2096642;28;20067;-69
2022/06/14 02:41:37;;;;;;;4.57;2.42;;;12.30;99.90;;;;;;2097509;28;20013;-69
2022/06/14 02:42:49;;;;;;;5.88;2.78;;;12.30;99.90;;;;;;2096686;28;20424;-69
2022/06/14 02:44:10;;;;;;;5.70;2.85;;;12.30;99.90;;;;;;2097021;28;20024;-69
2022/06/14 02:45:22;;;;;;;5.38;2.60;;;12.30;99.90;;;;;;2095209;28;20095;-69
2022/06/14 02:46:29;;;;;;;8.10;3.05;;;12.20;99.90;;;;;;2098363;28;20032;-69
2022/06/14 02:47:50;;;;;;;5.38;2.80;;;12.30;99.90;;;;;;2094448;28;20107;-69
2022/06/14 02:49:04;;;;;;;7.50;2.95;;;12.30;99.90;;;;;;2098488;28;20032;-69
2022/06/14 02:50:22;;;;;;;10.98;3.30;;;12.30;99.90;;;;;;2096491;28;20031;-69
2022/06/14 02:51:28;;;;;;;8.32;2.80;;;12.20;99.90;;;;;;2096349;28;20056;-69
2022/06/14 02:52:40;;;;;;;7.15;2.88;;;12.20;99.90;;;;;;2098576;28;20028;-70
2022/06/14 02:53:53;;;;;;;6.78;2.63;;;12.20;99.90;;;;;;2095149;28;20028;-69
2022/06/14 02:54:57;;;;;;;7.38;2.28;;;12.20;99.90;;;;;;2097121;28;20116;-69
2022/06/14 02:56:06;;;;;;;5.70;2.70;;;12.20;99.90;;;;;;2095585;28;20494;-69
2022/06/14 02:57:18;;;;;;;9.25;3.05;;;12.20;99.90;;;;;;2093144;28;20039;-70
2022/06/14 02:58:22;;;;;;;7.03;2.88;;;12.30;99.90;;;;;;2096657;28;20024;-69
2022/06/14 02:59:34;;;;;;;7.30;2.95;;;12.20;99.90;;;;;;2096880;28;20020;-69
2022/06/14 03:00:47;;;;;;;6.82;3.35;;;12.20;99.90;;;;;;2096139;28;20385;-69
2022/06/14 03:01:57;;;;;;;4.82;2.78;;;12.20;99.90;;;;;;2097271;28;20017;-69
2022/06/14 03:03:07;;;;;;;8.05;2.88;;;12.20;99.90;;;;;;2094850;28;20404;-69
2022/06/14 03:04:17;;;;;;;6.95;3.05;;;12.20;99.90;;;;;;2097902;28;20016;-69
2022/06/14 03:05:34;;;;;;;4.72;2.72;;;12.30;99.90;;;;;;2095470;28;20052;-69
2022/06/14 03:06:48;;;;;;;7.63;3.17;;;12.20;99.90;;;;;;2096280;28;20035;-69
2022/06/14 03:07:52;;;;;;;5.32;2.92;;;12.20;99.90;;;;;;2095006;28;20021;-69
2022/06/14 03:09:14;;;;;;;5.88;3.20;;;12.20;99.90;;;;;;2094678;28;20036;-69
2022/06/14 03:10:15;;;;;;;9.80;3.85;;;12.20;99.90;;;;;;2096266;28;20040;-69
2022/06/14 03:11:27;;;;;;;7.90;3.20;;;12.20;99.90;;;;;;2096426;28;20450;-69
2022/06/14 03:12:38;;;;;;;5.80;2.85;;;12.20;99.90;;;;;;2097928;28;20025;-69
2022/06/14 03:13:54;;;;;;;6.00;2.60;;;12.20;99.90;;;;;;2096493;28;20020;-69
2022/06/14 03:15:33;;;;;;;8.38;3.10;;;12.20;99.90;;;;;;2096181;28;20025;-69
2022/06/14 03:16:46;;;;;;;7.03;3.35;;;12.20;99.90;;;;;;2100136;28;20121;-69
2022/06/14 03:17:52;;;;;;;6.57;3.10;;;12.20;99.90;;;;;;2097472;28;20586;-69
2022/06/14 03:18:57;;;;;;;5.18;2.60;;;12.20;99.90;;;;;;2096284;28;20027;-69
2022/06/14 03:20:07;;;;;;;4.78;2.58;;;12.20;99.90;;;;;;2097668;28;20025;-69
2022/06/14 03:21:18;;;;;;;5.75;3.35;;;12.20;99.90;;;;;;2094615;28;20533;-69
2022/06/14 03:22:45;;;;;;;17.65;3.38;;;12.20;99.90;;;;;;2096801;28;20020;-69
2022/06/14 03:24:01;;;;;;;7.55;3.08;;;12.10;99.90;;;;;;2097661;28;20054;-69
2022/06/14 03:25:25;;;;;;;5.57;2.90;;;12.20;99.90;;;;;;2097439;28;20497;-69
2022/06/14 03:27:10;;;;;;;9.10;3.13;;;12.20;99.90;;;;;;2096435;28;20050;-69
2022/06/14 03:28:30;;;;;;;6.57;2.95;;;12.10;99.90;;;;;;2098972;28;20017;-69
2022/06/14 03:29:40;;;;;;;7.72;3.30;;;12.10;99.90;;;;;;2097029;28;20502;-69
2022/06/14 03:30:53;;;;;;;8.48;3.25;;;12.10;99.90;;;;;;2098014;28;20029;-69
2022/06/14 03:32:12;;;;;;;5.40;2.95;;;12.10;99.90;;;;;;2096614;28;20044;-69
2022/06/14 03:33:37;;;;;;;5.22;2.65;;;12.10;99.90;;;;;;2096845;28;20024;-69
2022/06/14 03:34:51;;;;;;;4.22;2.45;;;12.10;99.90;;;;;;2092895;28;20021;-69
2022/06/14 03:35:53;;;;;;;5.22;2.70;;;12.10;99.90;;;;;;2096151;28;20060;-69
2022/06/14 03:36:55;;;;;;;5.47;3.28;;;12.10;99.90;;;;;;2096711;28;20400;-69
2022/06/14 03:38:01;;;;;;;6.38;3.00;;;12.10;99.90;;;;;;2097130;28;20024;-69
2022/06/14 03:39:10;;;;;;;5.35;2.63;;;12.10;99.90;;;;;;2096317;28;20027;-69
2022/06/14 03:40:14;;;;;;;5.15;2.85;;;12.10;99.90;;;;;;2097719;28;20074;-69
2022/06/14 03:41:20;;;;;;;4.35;2.75;;;12.10;99.90;;;;;;2095868;28;20043;-69
2022/06/14 03:42:21;;;;;;;8.43;3.08;;;12.10;99.90;;;;;;2095119;28;20027;-69
2022/06/14 03:43:22;;;;;;;7.18;2.90;;;12.10;99.90;;;;;;2095892;28;20086;-69
2022/06/14 03:44:25;;;;;;;5.00;3.38;;;12.10;99.90;;;;;;2096332;28;20091;-69
2022/06/14 03:45:37;;;;;;;6.93;3.60;;;12.10;99.90;;;;;;2097889;28;20024;-69
2022/06/14 03:47:11;;;;;;;7.05;3.20;;;12.10;99.90;;;;;;2098313;28;20044;-69
2022/06/14 03:48:13;;;;;;;5.05;2.70;;;12.10;99.90;;;;;;2097379;28;20039;-69
2022/06/14 03:49:19;;;;;;;5.38;2.40;;;12.10;99.90;;;;;;2096263;28;20036;-69
2022/06/14 03:50:27;;;;;;;6.95;3.13;;;12.10;99.90;;;;;;2096478;28;20107;-69
2022/06/14 03:51:28;;;;;;;8.38;3.35;;;12.20;99.90;;;;;;2096628;28;20020;-69
2022/06/14 03:52:53;;;;;;;5.20;2.70;;;12.10;99.90;;;;;;2097016;28;20030;-69
2022/06/14 03:54:24;;;;;;;6.05;2.53;;;12.20;99.90;;;;;;2094384;28;20028;-69
2022/06/14 03:55:34;;;;;;;5.18;2.78;;;12.20;99.90;;;;;;2111067;28;20499;-69
2022/06/14 03:56:53;;;;;;;5.47;2.85;;;12.10;99.90;;;;;;2108891;28;20024;-70
2022/06/14 03:58:26;;;;;;;4.88;2.95;;;12.20;99.90;;;;;;2095104;28;20451;-69
2022/06/14 03:59:39;;;;;;;6.55;3.20;;;12.20;99.90;;;;;;2095535;28;20024;-69
2022/06/14 04:01:03;;;;;;;3.80;3.10;;;12.20;99.90;;;;;;2093883;28;20033;-69
2022/06/14 04:02:19;;;;;;;6.60;3.70;;;12.20;99.90;;;;;;2094698;28;20099;-69
2022/06/14 04:04:04;;;;;;;6.07;2.63;;;12.30;99.90;;;;;;2094694;28;20120;-70
2022/06/14 04:05:21;;;;;;;4.63;2.90;;;12.30;99.90;;;;;;2096929;28;20020;-69
2022/06/14 04:06:31;;;;;;;6.47;2.80;;;12.30;99.90;;;;;;2097719;28;20043;-69
2022/06/14 04:07:41;;;;;;;5.85;3.22;;;12.30;99.90;;;;;;2100856;28;20016;-69
2022/06/14 04:08:56;;;;;;;6.20;3.58;;;12.30;99.90;;;;;;2095175;28;20025;-69
2022/06/14 04:10:23;;;;;;;6.78;3.88;;;12.30;99.90;;;;;;2095092;28;20024;-69
2022/06/14 04:11:35;;;;;;;4.80;3.30;;;12.30;99.90;;;;;;2097897;28;20056;-69
2022/06/14 04:13:13;;;;;;;6.18;3.20;;;12.30;99.90;;;;;;2096523;28;20021;-69
2022/06/14 04:14:44;;;;;;;7.85;3.33;;;12.30;99.90;;;;;;2096427;28;20036;-69
2022/06/14 04:16:00;;;;;;;7.47;3.58;;;12.40;99.90;;;;;;2096348;28;20074;-69
2022/06/14 04:17:20;;;;;;;5.28;3.20;;;12.30;99.90;;;;;;2094356;28;20024;-70
2022/06/14 04:18:45;;;;;;;5.38;2.88;;;12.40;99.90;;;;;;2099816;28;20495;-70
2022/06/14 04:20:07;;;;;;;7.13;3.33;;;12.40;99.90;;;;;;2096505;28;20024;-69
2022/06/14 04:21:12;;;;;;;5.25;3.00;;;12.40;99.90;;;;;;2094482;28;20917;-69
2022/06/14 04:22:16;;;;;;;6.88;3.28;;;12.40;99.90;;;;;;2095384;28;20021;-69
2022/06/14 04:23:50;;;;;;;5.40;3.45;;;12.50;99.90;;;;;;2096455;28;20017;-69
2022/06/14 04:25:04;;;;;;;8.77;4.10;;;12.50;99.90;;;;;;2093205;28;20046;-69
2022/06/14 04:26:15;;;;;;;7.68;3.47;;;12.60;99.90;;;;;;2092725;28;20017;-70
2022/06/14 04:27:36;;;;;;;4.25;2.83;;;12.60;99.90;;;;;;2096276;28;20036;-70
2022/06/14 04:28:48;;;;;;;6.80;4.07;;;12.70;99.90;;;;;;2095300;28;20024;-69
2022/06/14 04:30:09;;;;;;;5.70;3.72;;;12.70;99.90;;;;;;2111488;28;20482;-69
2022/06/14 04:31:13;;;;;;;7.30;3.60;;;12.70;99.90;;;;;;2106737;28;20036;-69
2022/06/14 04:32:19;;;;;;;8.57;4.03;;;12.80;99.90;;;;;;2095150;28;20063;-69
2022/06/14 04:33:45;;;;;;;7.30;3.47;;;12.80;99.90;;;;;;2095818;28;20021;-70
2022/06/14 04:34:51;;;;;;;6.88;3.22;;;12.90;99.90;;;;;;2097488;28;20043;-70
2022/06/14 04:35:55;;;;;;;7.05;3.70;;;12.90;99.90;;;;;;2094174;28;20618;-70
2022/06/14 04:37:04;;;;;;;6.00;3.30;;;12.90;99.90;;;;;;2095764;28;20036;-70
2022/06/14 04:38:12;;;;;;;9.63;4.13;;;13.00;99.90;;;;;;2095495;28;20016;-69
2022/06/14 04:39:22;;;;;;;6.18;3.45;;;13.00;99.90;;;;;;2098654;28;20607;-69
2022/06/14 04:40:31;;;;;;;7.38;3.20;;;13.00;99.90;;;;;;2094042;28;20032;-69
2022/06/14 04:41:38;;;;;;;8.07;3.47;;;13.10;99.90;;;;;;2096810;28;20419;-69
2022/06/14 04:42:45;;;;;;;6.95;3.95;;;13.10;99.90;;;;;;2093837;28;20541;-69
2022/06/14 04:44:02;;;;;;;5.22;2.97;;;13.20;99.90;;;;;;2098353;28;20024;-69
2022/06/14 04:45:20;;;;;;;8.63;3.30;;;13.20;99.90;;;;;;2098165;28;20020;-69
2022/06/14 04:46:27;;;;;;;7.55;3.53;;;13.30;99.90;;;;;;2095856;28;20378;-69
2022/06/14 04:47:38;;;;;;;7.38;4.07;;;13.30;99.90;;;;;;2094990;28;20063;-70
2022/06/14 04:48:57;;;;;;;7.95;3.60;;;13.40;99.90;;;;;;2095791;28;20020;-70
2022/06/14 04:50:06;;;;;;;6.00;3.10;;;13.50;99.90;;;;;;2095219;28;20369;-70
2022/06/14 04:51:32;;;;;;;7.72;3.78;;;13.50;99.90;;;;;;2095815;28;20033;-70
2022/06/14 04:52:47;;;;;;;6.88;3.50;;;13.60;99.90;;;;;;2093550;28;20370;-70
2022/06/14 04:53:59;;;;;;;8.32;4.15;;;13.70;99.90;;;;;;2094077;28;20103;-70
2022/06/14 04:55:09;;;;;;;8.43;4.10;;;13.80;99.90;;;;;;2095868;28;20054;-70
2022/06/14 04:56:17;;;;;;;7.40;4.18;;;13.90;99.90;;;;;;2095130;28;20162;-70
2022/06/14 04:57:39;;;;;;;8.60;3.42;;;14.00;99.90;;;;;;2095491;28;20376;-70
2022/06/14 04:58:42;;;;;;;8.55;3.88;;;14.10;99.90;;;;;;2097269;28;20027;-70
2022/06/14 04:59:59;;;;;;;4.43;2.75;;;14.20;99.90;;;;;;2097145;28;20435;-70
2022/06/14 05:01:07;;;;;;;6.65;3.35;;;14.30;99.90;;;;;;2095877;28;20029;-70
2022/06/14 05:02:20;;;;;;;9.50;3.72;;;14.40;99.90;;;;;;2094293;28;20222;-70
2022/06/14 05:04:02;;;;;;;7.70;4.40;;;14.50;99.90;;;;;;2095011;28;20529;-70
2022/06/14 05:05:14;;;;;;;8.68;4.18;;;14.60;99.90;;;;;;2095501;28;20040;-70
2022/06/14 05:06:46;;;;;;;5.22;3.53;;;14.70;99.90;;;;;;2097426;28;20024;-70
2022/06/14 05:07:51;;;;;;;6.32;3.40;;;14.70;99.90;;;;;;2093534;28;20021;-70
2022/06/14 05:09:21;;;;;;;7.65;4.18;;;14.90;99.90;;;;;;2096038;28;20029;-70
2022/06/14 05:10:33;;;;;;;9.50;3.53;;;15.00;99.90;;;;;;2096083;28;20036;-70
2022/06/14 05:12:03;;;;;;;8.07;3.42;;;15.10;99.90;;;;;;2095690;28;20271;-70
2022/06/14 05:13:14;;;;;;;10.18;3.92;;;15.20;99.90;;;;;;2094792;28;20019;-70
2022/06/14 05:14:41;;;;;;;7.53;4.10;;;15.30;99.90;;;;;;2096133;28;20490;-70
2022/06/14 05:15:55;;;;;;;7.57;3.88;;;15.40;99.90;;;;;;2087904;28;20039;-70
2022/06/14 05:17:10;;;;;;;7.53;3.85;;;15.50;99.90;;;;;;2095874;28;20024;-70
2022/06/14 05:18:26;;;;;;;7.93;4.40;;;15.60;99.90;;;;;;2095495;28;20017;-70
2022/06/14 05:19:47;;;;;;;9.73;3.90;;;15.70;99.90;;;;;;2096851;28;20025;-70
2022/06/14 05:21:05;;;;;;;8.23;4.25;;;15.80;99.90;;;;;;2094117;28;20105;-70
2022/06/14 05:22:16;;;;;;;8.65;3.80;;;15.90;99.90;;;;;;2096980;28;20013;-70
2022/06/14 05:23:28;;;;;;;8.10;4.55;;;16.00;99.90;;;;;;2094900;28;20021;-70
2022/06/14 05:24:30;;;;;;;8.30;3.92;;;16.10;99.90;;;;;;2095515;28;20016;-70
2022/06/14 05:25:48;;;;;;;8.80;4.03;;;16.20;99.90;;;;;;2095903;28;20544;-70
2022/06/14 05:27:24;;;;;;;7.65;4.65;;;16.30;99.90;;;;;;2096950;28;20032;-70
2022/06/14 05:29:04;;;;;;;11.10;4.13;;;16.40;99.90;;;;;;2096962;28;20020;-70
2022/06/14 05:30:26;;;;;;;9.77;4.47;;;16.40;99.90;;;;;;2078284;28;20044;-70
2022/06/14 05:31:39;;;;;;;10.32;4.57;;;16.40;99.90;;;;;;2096888;28;20056;-70
2022/06/14 05:33:10;;;;;;;8.35;4.55;;;16.50;99.90;;;;;;2098559;28;20472;-70
2022/06/14 05:34:21;;;;;;;8.38;3.67;;;16.50;99.90;;;;;;2096857;28;20035;-70
2022/06/14 05:35:27;;;;;;;9.85;4.25;;;16.60;99.90;;;;;;2098597;28;20063;-70
2022/06/14 05:36:51;;;;;;;9.30;3.90;;;16.70;99.90;;;;;;2096544;28;20017;-70
2022/06/14 05:38:01;;;;;;;8.30;3.85;;;16.80;99.90;;;;;;2090189;28;20037;-70
2022/06/14 05:39:15;;;;;;;8.00;3.75;;;16.80;99.90;;;;;;2099234;28;20567;-70
2022/06/14 05:40:34;;;;;;;8.68;3.80;;;16.90;99.90;;;;;;2095393;28;20036;-70
2022/06/14 05:41:47;;;;;;;7.55;3.78;;;16.90;99.90;;;;;;2096905;28;20437;-70
2022/06/14 05:43:06;;;;;;;7.80;3.20;;;17.00;99.90;;;;;;2095685;28;20017;-70
2022/06/14 05:44:10;;;;;;;11.00;4.07;;;17.00;99.90;;;;;;2099858;28;20108;-70
2022/06/14 05:45:12;;;;;;;11.07;4.32;;;17.10;99.90;;;;;;2096663;28;20020;-70
2022/06/14 05:46:43;;;;;;;11.48;4.18;;;17.10;99.90;;;;;;2097598;28;20145;-70
2022/06/14 05:47:50;;;;;;;10.25;4.20;;;17.20;99.90;;;;;;2093337;28;20106;-70
2022/06/14 05:48:56;;;;;;;7.75;3.50;;;17.20;99.90;;;;;;2100086;28;20024;-70
2022/06/14 05:50:09;;;;;;;11.10;4.28;;;17.30;99.90;;;;;;2097398;28;20031;-70
2022/06/14 05:51:13;;;;;;;9.77;3.45;;;17.30;99.90;;;;;;2093265;28;20400;-70
2022/06/14 05:52:27;;;;;;;9.32;3.72;;;17.40;99.90;;;;;;2096630;28;20520;-70
2022/06/14 05:53:46;;;;;;;14.40;4.97;;;17.40;99.90;;;;;;2097073;28;20024;-70
2022/06/14 05:55:04;;;;;;;11.57;3.63;;;17.40;99.90;;;;;;2096421;28;20608;-70
2022/06/14 05:56:33;;;;;;;10.32;3.97;;;17.50;99.90;;;;;;2097256;28;20380;-70
2022/06/14 05:57:37;;;;;;;10.32;4.07;;;17.50;99.90;;;;;;2089856;28;20459;-70
2022/06/14 05:58:47;;;;;;;7.18;3.85;;;17.50;99.90;;;;;;2099837;28;20028;-70
2022/06/14 05:59:54;;;;;;;7.38;3.75;;;17.60;99.90;;;;;;2098065;28;20395;-70
2022/06/14 06:01:03;;;;;;;12.50;3.63;;;17.60;99.90;;;;;;2095866;28;20039;-70
2022/06/14 06:02:14;;;;;;;8.35;3.40;;;17.60;99.90;;;;;;2097290;28;20416;-70
2022/06/14 06:03:52;;;;;;;10.60;3.67;;;17.60;99.40;;;;;;2095712;28;20029;-70
2022/06/14 06:05:16;;;;;;;10.20;3.13;;;17.70;99.40;;;;;;2095521;28;20036;-70
2022/06/14 06:06:37;;;;;;;6.63;3.63;;;17.70;99.40;;;;;;2096398;28;20118;-70
2022/06/14 06:07:48;;;;;;;10.57;4.68;;;17.60;99.90;;;;;;2096424;28;20411;-70
2022/06/14 06:08:57;;;;;;;10.73;3.88;;;17.70;99.40;;;;;;2098238;28;20016;-70
2022/06/14 06:10:17;;;;;;;12.95;4.40;;;17.70;99.10;;;;;;2096044;28;20377;-70
2022/06/14 06:11:21;;;;;;;;;;;17.80;98.10;;;;;;2095480;28;20031;-70
2022/06/14 06:12:29;;;;;;;8.88;3.38;;;17.80;97.90;;;;;;2096720;28;20006;-70
2022/06/14 06:13:36;;;;;;;11.60;4.20;;;17.80;98.30;;;;;;2096332;28;20016;-70
2022/06/14 06:14:41;;;;;;;17.08;4.65;;;17.90;96.40;;;;;;2096902;28;20017;-70
2022/06/14 06:15:45;;;;;;;12.90;4.15;;;18.00;97.30;;;;;;2096685;28;20020;-70